createdAt,value
2023-04-16T00:01:34.623Z,18.10
2023-04-16T00:04:22.777Z,18.20
2023-04-16T00:07:10.926Z,18.20
2023-04-16T00:09:58.990Z,18.20
2023-04-16T00:12:47.047Z,18.10
2023-04-16T00:15:36.421Z,18.10
2023-04-16T00:18:24.451Z,18.10
2023-04-16T00:21:12.774Z,18.00
2023-04-16T00:24:00.843Z,18.10
2023-04-16T00:26:48.869Z,17.90
2023-04-16T00:29:36.872Z,17.90
2023-04-16T00:32:26.294Z,17.90
2023-04-16T00:35:14.360Z,17.90
2023-04-16T00:38:02.423Z,17.70
2023-04-16T00:40:50.598Z,17.70
2023-04-16T00:43:38.773Z,17.70
2023-04-16T00:46:27.408Z,17.60
2023-04-16T00:49:16.977Z,17.80
2023-04-16T00:52:05.392Z,17.60
2023-04-16T00:54:53.995Z,17.60
2023-04-16T00:57:42.078Z,17.60
2023-04-16T01:00:30.130Z,17.60
2023-04-16T01:03:18.580Z,17.70
2023-04-16T01:06:08.746Z,17.90
2023-04-16T01:08:56.740Z,17.80
2023-04-16T01:11:44.786Z,17.80
2023-04-16T01:14:36.264Z,17.80
2023-04-16T01:17:24.337Z,17.90
2023-04-16T01:20:12.416Z,18.00
2023-04-16T01:23:01.767Z,18.10
2023-04-16T01:25:49.823Z,18.10
2023-04-16T01:28:38.073Z,18.10
2023-04-16T01:31:26.289Z,18.20
2023-04-16T01:34:14.520Z,18.20
2023-04-16T01:37:02.587Z,18.10
2023-04-16T01:39:51.938Z,18.20
2023-04-16T01:42:40.022Z,18.20
2023-04-16T01:45:28.128Z,18.20
2023-04-16T01:48:16.277Z,18.20
2023-04-16T01:51:05.139Z,18.20
2023-04-16T01:53:53.193Z,18.10
2023-04-16T01:56:42.503Z,18.10
2023-04-16T01:59:30.734Z,18.10
2023-04-16T02:02:18.950Z,18.10
2023-04-16T02:05:07.443Z,18.00
2023-04-16T02:07:55.451Z,17.90
2023-04-16T02:10:43.477Z,17.90
2023-04-16T02:13:32.818Z,17.80
2023-04-16T02:16:20.956Z,17.70
2023-04-16T02:19:09.209Z,17.70
2023-04-16T02:21:57.485Z,17.80
2023-04-16T02:24:45.550Z,17.80
2023-04-16T02:27:33.588Z,17.60
2023-04-16T02:30:23.131Z,17.60
2023-04-16T02:33:12.550Z,17.60
2023-04-16T02:36:00.579Z,17.40
2023-04-16T02:38:48.658Z,17.60
2023-04-16T02:41:36.747Z,17.60
2023-04-16T02:44:24.781Z,17.60
2023-04-16T02:47:14.106Z,17.60
2023-04-16T02:50:02.119Z,17.60
2023-04-16T02:52:51.519Z,17.60
2023-04-16T02:55:39.579Z,17.60
2023-04-16T02:58:28.018Z,17.60
2023-04-16T03:01:16.173Z,17.60
2023-04-16T03:04:06.002Z,17.50
2023-04-16T03:06:54.070Z,17.50
2023-04-16T03:09:42.214Z,17.50
2023-04-16T03:12:30.254Z,17.60
2023-04-16T03:15:18.356Z,17.50
2023-04-16T03:18:06.399Z,17.40
2023-04-16T03:20:55.825Z,17.50
2023-04-16T03:23:43.855Z,17.40
2023-04-16T03:26:31.851Z,17.40
2023-04-16T03:29:19.867Z,17.40
2023-04-16T03:32:08.137Z,17.50
2023-04-16T03:34:56.198Z,17.40
2023-04-16T03:37:45.530Z,17.40
2023-04-16T03:40:33.531Z,17.60
2023-04-16T03:43:21.567Z,17.50
2023-04-16T03:46:09.687Z,17.40
2023-04-16T03:48:57.807Z,17.50
2023-04-16T03:51:46.074Z,17.50
2023-04-16T03:54:35.383Z,17.40
2023-04-16T03:57:23.385Z,17.50
2023-04-16T04:00:12.308Z,17.50
2023-04-16T04:03:00.657Z,17.50
2023-04-16T04:05:48.776Z,17.50
2023-04-16T04:08:36.820Z,17.40
2023-04-16T04:11:26.198Z,17.40
2023-04-16T04:14:14.206Z,17.40
2023-04-16T04:17:02.241Z,17.40
2023-04-16T04:20:00.364Z,17.40
2023-04-16T04:22:49.340Z,17.40
2023-04-16T04:25:37.315Z,17.40
2023-04-16T04:28:26.631Z,17.40
2023-04-16T04:31:14.743Z,17.40
2023-04-16T04:34:02.747Z,17.40
2023-04-16T04:36:51.053Z,17.40
2023-04-16T04:39:39.158Z,17.40
2023-04-16T04:42:27.237Z,17.40
2023-04-16T04:45:16.892Z,17.40
2023-04-16T04:48:05.228Z,17.40
2023-04-16T04:50:53.995Z,17.40
2023-04-16T04:53:42.058Z,17.40
2023-04-16T04:56:30.042Z,17.50
2023-04-16T04:59:18.113Z,17.50
2023-04-16T05:02:07.650Z,17.70
2023-04-16T05:04:55.753Z,17.60
2023-04-16T05:07:43.815Z,17.70
2023-04-16T05:10:31.853Z,17.70
2023-04-16T05:13:19.911Z,17.80
2023-04-16T05:16:08.698Z,18.00
2023-04-16T05:18:58.159Z,17.80
2023-04-16T05:21:46.163Z,17.90
2023-04-16T05:24:34.209Z,17.90
2023-04-16T05:27:22.255Z,17.90
2023-04-16T05:30:11.012Z,18.00
2023-04-16T05:32:59.109Z,17.80
2023-04-16T05:35:48.467Z,17.80
2023-04-16T05:38:36.479Z,17.80
2023-04-16T05:41:24.566Z,17.80
2023-04-16T05:44:12.579Z,17.80
2023-04-16T05:47:00.570Z,17.70
2023-04-16T05:49:48.568Z,17.60
2023-04-16T05:52:37.883Z,17.60
2023-04-16T05:55:25.999Z,17.50
2023-04-16T05:58:14.048Z,17.50
2023-04-16T06:01:02.306Z,17.50
2023-04-16T06:03:50.498Z,17.50
2023-04-16T06:06:39.415Z,17.50
2023-04-16T06:09:28.727Z,17.40
2023-04-16T06:12:16.734Z,17.50
2023-04-16T06:15:05.462Z,17.50
2023-04-16T06:17:53.544Z,17.60
2023-04-16T06:20:41.572Z,17.70
2023-04-16T06:23:29.609Z,17.70
2023-04-16T06:26:19.094Z,17.80
2023-04-16T06:29:07.268Z,17.80
2023-04-16T06:31:55.746Z,17.80
2023-04-16T06:34:43.956Z,18.00
2023-04-16T06:37:31.942Z,17.90
2023-04-16T06:40:19.934Z,17.90
2023-04-16T06:43:09.298Z,18.00
2023-04-16T06:45:57.283Z,17.60
2023-04-16T06:48:45.276Z,18.00
2023-04-16T06:51:33.411Z,18.00
2023-04-16T06:54:21.436Z,17.90
2023-04-16T06:57:09.426Z,17.90
2023-04-16T06:59:58.756Z,17.90
2023-04-16T07:02:47.025Z,17.80
2023-04-16T07:05:35.119Z,17.80
2023-04-16T07:08:23.097Z,17.80
2023-04-16T07:11:11.176Z,17.70
2023-04-16T07:13:59.208Z,17.80
2023-04-16T07:16:48.557Z,17.80
2023-04-16T07:19:37.088Z,17.70
2023-04-16T07:22:25.148Z,17.70
2023-04-16T07:25:13.172Z,17.70
2023-04-16T07:28:01.217Z,17.70
2023-04-16T07:30:50.351Z,17.80
2023-04-16T07:33:39.708Z,17.60
2023-04-16T07:36:28.365Z,17.60
2023-04-16T07:39:16.412Z,17.60
2023-04-16T07:42:04.477Z,17.60
2023-04-16T07:44:52.452Z,17.60
2023-04-16T07:47:41.088Z,17.60
2023-04-16T07:50:30.405Z,17.60
2023-04-16T07:53:18.399Z,17.70
2023-04-16T07:56:06.935Z,17.90
2023-04-16T07:58:54.943Z,17.80
2023-04-16T08:01:43.259Z,17.80
2023-04-16T08:04:31.385Z,17.90
2023-04-16T08:07:20.941Z,17.80
2023-04-16T08:10:09.894Z,17.80
2023-04-16T08:12:58.163Z,17.80
2023-04-16T08:15:46.189Z,17.80
2023-04-16T08:18:34.269Z,17.90
2023-04-16T08:21:23.016Z,17.80
2023-04-16T08:24:12.459Z,17.90
2023-04-16T08:27:11.483Z,17.90
2023-04-16T08:30:06.856Z,17.80
2023-04-16T08:32:55.114Z,17.80
2023-04-16T08:35:43.199Z,17.90
2023-04-16T08:38:31.207Z,17.80
2023-04-16T08:41:24.357Z,17.80
2023-04-16T08:44:18.603Z,17.70
2023-04-16T08:47:09.118Z,17.70
2023-04-16T08:49:59.760Z,17.70
2023-04-16T08:52:54.162Z,17.60
2023-04-16T08:55:47.946Z,17.60
2023-04-16T08:58:38.377Z,17.60
2023-04-16T09:01:26.817Z,17.70
2023-04-16T09:04:16.659Z,17.70
2023-04-16T09:07:05.518Z,17.80
2023-04-16T09:09:54.724Z,18.00
2023-04-16T09:12:43.431Z,18.10
2023-04-16T09:15:35.199Z,18.10
2023-04-16T09:18:23.344Z,18.30
2023-04-16T09:21:11.754Z,18.20
2023-04-16T09:24:00.965Z,18.30
2023-04-16T09:26:52.672Z,18.30
2023-04-16T09:29:42.019Z,18.40
2023-04-16T09:32:31.385Z,18.40
2023-04-16T09:35:20.846Z,18.40
2023-04-16T09:38:08.870Z,18.30
2023-04-16T09:41:08.008Z,18.30
2023-04-16T09:43:57.612Z,18.20
2023-04-16T09:46:45.627Z,18.30
2023-04-16T09:49:41.975Z,18.20
2023-04-16T09:52:29.978Z,18.20
2023-04-16T09:55:23.146Z,18.10
2023-04-16T09:58:11.422Z,18.10
2023-04-16T10:01:02.664Z,18.00
2023-04-16T10:03:51.589Z,18.00
2023-04-16T10:06:41.064Z,18.10
2023-04-16T10:09:33.399Z,18.00
2023-04-16T10:12:21.538Z,17.90
2023-04-16T10:15:10.316Z,18.00
2023-04-16T10:18:00.290Z,18.00
2023-04-16T10:20:49.026Z,18.00
2023-04-16T10:23:39.929Z,17.90
2023-04-16T10:26:28.646Z,17.90
2023-04-16T10:29:17.131Z,17.90
2023-04-16T10:32:07.037Z,17.90
2023-04-16T10:34:55.392Z,17.90
2023-04-16T10:37:45.039Z,18.00
2023-04-16T10:40:36.034Z,17.90
2023-04-16T10:43:26.600Z,17.90
2023-04-16T10:46:22.294Z,17.90
2023-04-16T10:49:17.835Z,17.90
2023-04-16T10:52:11.972Z,18.00
2023-04-16T10:55:01.240Z,17.90
2023-04-16T10:57:53.910Z,18.00
2023-04-16T11:00:51.033Z,18.00
2023-04-16T11:03:42.875Z,18.00
2023-04-16T11:06:31.980Z,18.00
2023-04-16T11:09:56.142Z,18.00
2023-04-16T11:12:45.581Z,18.00
2023-04-16T11:15:34.973Z,18.00
2023-04-16T11:18:23.010Z,18.00
2023-04-16T11:21:12.357Z,18.00
2023-04-16T11:24:00.370Z,18.00
2023-04-16T11:26:52.687Z,18.00
2023-04-16T11:29:41.452Z,18.00
2023-04-16T11:32:32.804Z,17.90
2023-04-16T11:35:21.089Z,17.90
2023-04-16T11:38:09.109Z,17.80
2023-04-16T11:40:57.123Z,17.80
2023-04-16T11:43:45.140Z,17.80
2023-04-16T11:46:40.617Z,17.80
2023-04-16T11:49:30.608Z,17.80
2023-04-16T11:52:29.085Z,17.80
2023-04-16T11:55:17.338Z,17.80
2023-04-16T11:58:13.077Z,17.80
2023-04-16T12:01:01.598Z,17.80
2023-04-16T12:03:49.952Z,17.90
2023-04-16T12:06:39.530Z,17.90
2023-04-16T12:09:28.280Z,16.80
2023-04-16T12:12:30.864Z,18.00
2023-04-16T12:15:19.749Z,18.00
2023-04-16T12:18:09.453Z,18.00
2023-04-16T12:20:57.700Z,18.10
2023-04-16T12:23:47.043Z,18.10
2023-04-16T12:26:40.734Z,18.20
2023-04-16T12:29:28.760Z,18.20
2023-04-16T12:32:23.414Z,18.30
2023-04-16T12:35:12.062Z,18.10
2023-04-16T12:38:00.124Z,18.10
2023-04-16T12:40:49.479Z,18.20
2023-04-16T12:43:37.841Z,18.00
2023-04-16T12:46:25.894Z,17.90
2023-04-16T12:49:13.908Z,18.00
2023-04-16T12:52:01.932Z,17.80
2023-04-16T12:54:50.000Z,17.80
2023-04-16T12:57:39.340Z,17.80
2023-04-16T13:00:27.352Z,17.80
2023-04-16T13:03:16.121Z,17.70
2023-04-16T13:06:04.604Z,17.40
2023-04-16T13:08:52.620Z,17.70
2023-04-16T13:11:40.631Z,17.60
2023-04-16T13:14:29.981Z,17.70
2023-04-16T13:17:17.997Z,17.60
2023-04-16T13:20:06.934Z,17.70
2023-04-16T13:22:55.253Z,17.80
2023-04-16T13:25:43.264Z,18.00
2023-04-16T13:28:31.540Z,18.10
2023-04-16T13:31:22.193Z,18.20
2023-04-16T13:34:10.777Z,18.20
2023-04-16T13:36:58.789Z,18.30
2023-04-16T13:39:47.317Z,18.40
2023-04-16T13:42:36.334Z,18.40
2023-04-16T13:45:24.539Z,18.50
2023-04-16T13:48:13.971Z,18.40
2023-04-16T13:51:02.008Z,18.50
2023-04-16T13:53:50.061Z,18.50
2023-04-16T13:56:38.084Z,18.50
2023-04-16T13:59:26.235Z,18.50
2023-04-16T14:02:14.566Z,18.50
2023-04-16T14:05:04.152Z,18.50
2023-04-16T14:07:52.162Z,18.40
2023-04-16T14:10:40.206Z,18.20
2023-04-16T14:13:28.390Z,18.20
2023-04-16T14:16:16.605Z,18.20
2023-04-16T14:19:04.786Z,18.30
2023-04-16T14:21:54.359Z,18.10
2023-04-16T14:24:42.408Z,18.10
2023-04-16T14:27:31.166Z,18.10
2023-04-16T14:30:19.522Z,18.00
2023-04-16T14:33:07.590Z,18.00
2023-04-16T14:35:56.144Z,18.00
2023-04-16T14:38:45.597Z,18.00
2023-04-16T14:41:33.586Z,17.90
2023-04-16T14:44:21.738Z,17.90
2023-04-16T14:47:09.917Z,17.80
2023-04-16T14:49:58.151Z,17.90
2023-04-16T14:52:46.306Z,17.80
2023-04-16T14:55:35.707Z,17.90
2023-04-16T14:58:23.706Z,17.70
2023-04-16T15:01:13.702Z,17.80
2023-04-16T15:04:02.958Z,17.80
2023-04-16T15:06:51.527Z,17.90
2023-04-16T15:09:39.548Z,18.00
2023-04-16T15:12:28.900Z,18.00
2023-04-16T15:15:17.558Z,18.10
2023-04-16T15:18:05.967Z,18.10
2023-04-16T15:20:55.438Z,18.10
2023-04-16T15:23:43.752Z,18.20
2023-04-16T15:26:32.068Z,18.30
2023-04-16T15:29:21.392Z,18.20
2023-04-16T15:32:09.453Z,18.40
2023-04-16T15:34:57.481Z,18.30
2023-04-16T15:37:45.508Z,18.20
2023-04-16T15:40:33.538Z,18.30
2023-04-16T15:43:21.568Z,18.30
2023-04-16T15:46:10.930Z,18.50
2023-04-16T15:48:58.999Z,18.30
2023-04-16T15:51:47.095Z,18.30
2023-04-16T15:54:35.137Z,18.10
2023-04-16T15:57:23.131Z,18.10
2023-04-16T16:00:15.025Z,18.20
2023-04-16T16:03:04.681Z,18.10
2023-04-16T16:05:52.941Z,18.00
2023-04-16T16:08:43.556Z,17.90
2023-04-16T16:11:32.308Z,17.90
2023-04-16T16:14:20.421Z,18.00
2023-04-16T16:17:08.459Z,17.80
2023-04-16T16:19:59.021Z,17.80
2023-04-16T16:22:48.276Z,17.80
2023-04-16T16:25:36.429Z,17.80
2023-04-16T16:28:25.086Z,17.90
2023-04-16T16:31:13.257Z,18.00
2023-04-16T16:34:01.249Z,18.20
2023-04-16T16:36:50.636Z,18.20
2023-04-16T16:39:39.111Z,18.10
2023-04-16T16:42:27.255Z,18.20
2023-04-16T16:45:15.313Z,18.20
2023-04-16T16:48:04.155Z,18.20
2023-04-16T16:50:52.176Z,18.30
2023-04-16T16:53:41.566Z,18.40
2023-04-16T16:56:29.578Z,18.40
2023-04-16T16:59:17.589Z,18.20
2023-04-16T17:02:05.665Z,18.20
2023-04-16T17:04:53.845Z,18.30
2023-04-16T17:07:41.857Z,18.20
2023-04-16T17:10:31.185Z,18.10
2023-04-16T17:13:19.898Z,18.10
2023-04-16T17:16:08.113Z,17.80
2023-04-16T17:18:57.189Z,18.00
2023-04-16T17:21:45.506Z,18.00
2023-04-16T17:24:33.581Z,17.90
2023-04-16T17:27:22.913Z,17.90
2023-04-16T17:30:11.353Z,17.90
2023-04-16T17:32:59.467Z,17.80
2023-04-16T17:35:47.512Z,17.80
2023-04-16T17:38:35.554Z,17.70
2023-04-16T17:41:23.600Z,17.80
2023-04-16T17:44:13.336Z,17.90
2023-04-16T17:47:02.086Z,17.80
2023-04-16T17:49:50.158Z,17.90
2023-04-16T17:52:38.459Z,17.80
2023-04-16T17:55:26.957Z,17.80
2023-04-16T17:58:14.961Z,17.80
2023-04-16T18:01:05.077Z,17.90
2023-04-16T18:03:53.224Z,17.80
2023-04-16T18:06:41.409Z,17.90
2023-04-16T18:09:29.467Z,17.90
2023-04-16T18:12:17.498Z,18.00
2023-04-16T18:15:06.332Z,17.90
2023-04-16T18:17:55.796Z,18.00
2023-04-16T18:20:43.834Z,17.90
2023-04-16T18:23:31.829Z,18.10
2023-04-16T18:26:22.294Z,17.90
2023-04-16T18:29:12.380Z,17.90
2023-04-16T18:32:04.336Z,17.90
2023-04-16T18:34:54.286Z,17.90
2023-04-16T18:37:42.470Z,17.90
2023-04-16T18:40:34.097Z,17.80
2023-04-16T18:43:22.186Z,17.80
2023-04-16T18:46:10.289Z,17.80
2023-04-16T18:48:58.969Z,17.80
2023-04-16T18:51:48.324Z,17.80
2023-04-16T18:54:37.031Z,17.80
2023-04-16T18:57:25.322Z,17.70
2023-04-16T19:00:14.362Z,17.70
2023-04-16T19:03:07.017Z,17.70
2023-04-16T19:08:45.217Z,17.60
2023-04-16T19:11:33.294Z,17.60
2023-04-16T19:14:21.345Z,17.60
2023-04-16T19:17:09.338Z,17.60
2023-04-16T19:19:57.471Z,17.70
2023-04-16T19:22:45.859Z,17.70
2023-04-16T19:25:35.416Z,17.70
2023-04-16T19:28:23.524Z,17.80
2023-04-16T19:31:11.525Z,17.80
2023-04-16T19:33:59.572Z,17.90
2023-04-16T19:36:47.545Z,17.90
2023-04-16T19:39:35.638Z,17.80
2023-04-16T19:42:25.155Z,17.80
2023-04-16T19:45:13.221Z,17.80
2023-04-16T19:48:01.225Z,17.90
2023-04-16T19:50:49.556Z,17.80
2023-04-16T19:53:38.184Z,17.90
2023-04-16T19:56:26.285Z,17.80
2023-04-16T19:59:15.596Z,17.80
2023-04-16T20:02:03.637Z,17.80
2023-04-16T20:04:53.053Z,17.70
2023-04-16T20:07:41.070Z,17.70
2023-04-16T20:10:31.207Z,17.70
2023-04-16T20:13:19.237Z,17.60
2023-04-16T20:16:09.369Z,17.70
2023-04-16T20:18:57.570Z,17.60
2023-04-16T20:21:46.360Z,17.60
2023-04-16T20:24:34.418Z,17.50
2023-04-16T20:27:22.482Z,17.50
2023-04-16T20:30:11.283Z,17.50
2023-04-16T20:33:00.618Z,17.60
2023-04-16T20:35:50.826Z,17.60
2023-04-16T20:38:38.914Z,17.80
2023-04-16T20:41:27.308Z,17.80
2023-04-16T20:44:18.761Z,17.80
2023-04-16T20:47:07.022Z,17.80
2023-04-16T20:49:56.369Z,18.00
2023-04-16T20:52:44.387Z,18.00
2023-04-16T20:55:32.385Z,18.00
2023-04-16T20:58:20.460Z,18.00
2023-04-16T21:01:08.552Z,18.00
2023-04-16T21:03:56.935Z,18.00
2023-04-16T21:06:46.713Z,18.10
2023-04-16T21:09:34.714Z,17.90
2023-04-16T21:12:22.715Z,17.90
2023-04-16T21:15:11.507Z,17.90
2023-04-16T21:17:59.528Z,17.80
2023-04-16T21:20:47.562Z,17.80
2023-04-16T21:23:36.889Z,17.70
2023-04-16T21:26:24.989Z,17.70
2023-04-16T21:29:13.195Z,17.60
2023-04-16T21:32:01.485Z,17.60
2023-04-16T21:34:49.639Z,17.50
2023-04-16T21:37:37.664Z,17.40
2023-04-16T21:40:26.996Z,17.40
2023-04-16T21:43:14.984Z,17.40
2023-04-16T21:46:03.005Z,17.50
2023-04-16T21:48:51.031Z,17.40
2023-04-16T21:51:40.572Z,17.40
2023-04-16T21:54:28.838Z,17.40
2023-04-16T21:57:18.137Z,17.40
2023-04-16T22:00:12.208Z,17.50
2023-04-16T22:03:00.556Z,17.50
2023-04-16T22:05:48.664Z,17.60
2023-04-16T22:08:36.673Z,17.70
2023-04-16T22:11:24.752Z,17.80
2023-04-16T22:14:14.648Z,17.70
2023-04-16T22:17:03.485Z,17.80
2023-04-16T22:19:53.375Z,17.90
2023-04-16T22:22:41.795Z,17.80
2023-04-16T22:25:29.827Z,17.80
2023-04-16T22:28:17.872Z,17.80
2023-04-16T22:31:07.255Z,17.70
2023-04-16T22:33:55.405Z,17.60
2023-04-16T22:36:43.384Z,17.60
2023-04-16T22:39:31.997Z,17.60
2023-04-16T22:42:20.001Z,17.60
2023-04-16T22:45:09.199Z,17.60
2023-04-16T22:47:58.573Z,17.50
2023-04-16T22:50:48.381Z,17.50
2023-04-16T22:53:36.758Z,17.50
2023-04-16T22:56:28.637Z,17.50
2023-04-16T22:59:16.718Z,17.50
2023-04-16T23:02:04.732Z,17.40
2023-04-16T23:04:54.069Z,17.50
2023-04-16T23:07:42.047Z,17.40
2023-04-16T23:10:30.261Z,17.40
2023-04-16T23:13:18.310Z,17.50
2023-04-16T23:16:07.077Z,17.30
2023-04-16T23:18:55.499Z,17.30
2023-04-16T23:21:44.819Z,17.30
2023-04-16T23:24:32.835Z,17.30
2023-04-16T23:27:20.818Z,17.30
2023-04-16T23:30:09.781Z,17.40
2023-04-16T23:32:57.834Z,17.30
2023-04-16T23:35:47.090Z,17.30
2023-04-16T23:38:36.405Z,17.30
2023-04-16T23:41:24.488Z,17.30
2023-04-16T23:44:12.528Z,17.20
2023-04-16T23:47:00.812Z,17.30
2023-04-16T23:49:48.974Z,17.40
2023-04-16T23:52:36.977Z,17.30
2023-04-16T23:55:26.467Z,17.30
2023-04-16T23:58:14.462Z,17.30
